sensor_id;sensor_type;location;lat;lon;timestamp;P1;durP1;ratioP1;P2;durP2;ratioP2
72113;SDS011;59989;46.220;19.888;2023-03-14T00:01:46;0.55;;;0.20;;
72113;SDS011;59989;46.220;19.888;2023-03-14T00:04:49;0.40;;;0.20;;
72113;SDS011;59989;46.220;19.888;2023-03-14T00:07:51;0.50;;;0.20;;
72113;SDS011;59989;46.220;19.888;2023-03-14T00:10:54;0.30;;;0.20;;
72113;SDS011;59989;46.220;19.888;2023-03-14T00:13:56;0.80;;;0.30;;
72113;SDS011;59989;46.220;19.888;2023-03-14T00:16:58;0.43;;;0.20;;
72113;SDS011;59989;46.220;19.888;2023-03-14T00:20:01;0.57;;;0.20;;
72113;SDS011;59989;46.220;19.888;2023-03-14T00:23:14;0.50;;;0.20;;
72113;SDS011;59989;46.220;19.888;2023-03-14T00:26:17;0.47;;;0.13;;
72113;SDS011;59989;46.220;19.888;2023-03-14T00:29:21;0.80;;;0.25;;
72113;SDS011;59989;46.220;19.888;2023-03-14T00:32:23;0.45;;;0.20;;
72113;SDS011;59989;46.220;19.888;2023-03-14T00:35:26;0.50;;;0.20;;
72113;SDS011;59989;46.220;19.888;2023-03-14T00:38:30;0.63;;;0.28;;
72113;SDS011;59989;46.220;19.888;2023-03-14T00:41:33;0.47;;;0.20;;
72113;SDS011;59989;46.220;19.888;2023-03-14T00:44:36;0.30;;;0.10;;
72113;SDS011;59989;46.220;19.888;2023-03-14T00:47:41;0.50;;;0.20;;
72113;SDS011;59989;46.220;19.888;2023-03-14T00:50:48;0.43;;;0.20;;
72113;SDS011;59989;46.220;19.888;2023-03-14T00:53:51;0.70;;;0.30;;
72113;SDS011;59989;46.220;19.888;2023-03-14T00:56:53;0.40;;;0.20;;
72113;SDS011;59989;46.220;19.888;2023-03-14T00:59:57;1.05;;;0.73;;
72113;SDS011;59989;46.220;19.888;2023-03-14T01:02:59;0.30;;;0.10;;
72113;SDS011;59989;46.220;19.888;2023-03-14T01:09:18;0.40;;;0.20;;
72113;SDS011;59989;46.220;19.888;2023-03-14T01:12:22;1.13;;;0.50;;
72113;SDS011;59989;46.220;19.888;2023-03-14T01:15:25;0.95;;;0.43;;
72113;SDS011;59989;46.220;19.888;2023-03-14T01:18:27;0.88;;;0.52;;
72113;SDS011;59989;46.220;19.888;2023-03-14T01:21:31;0.63;;;0.28;;
72113;SDS011;59989;46.220;19.888;2023-03-14T01:24:36;0.50;;;0.20;;
72113;SDS011;59989;46.220;19.888;2023-03-14T01:27:39;0.50;;;0.20;;
72113;SDS011;59989;46.220;19.888;2023-03-14T01:30:43;0.60;;;0.20;;
72113;SDS011;59989;46.220;19.888;2023-03-14T01:33:47;0.40;;;0.20;;
72113;SDS011;59989;46.220;19.888;2023-03-14T01:36:50;0.40;;;0.20;;
72113;SDS011;59989;46.220;19.888;2023-03-14T01:39:53;0.80;;;0.40;;
72113;SDS011;59989;46.220;19.888;2023-03-14T01:42:56;0.40;;;0.20;;
72113;SDS011;59989;46.220;19.888;2023-03-14T01:49:17;0.40;;;0.20;;
72113;SDS011;59989;46.220;19.888;2023-03-14T01:52:38;1.23;;;0.75;;
72113;SDS011;59989;46.220;19.888;2023-03-14T01:55:45;0.47;;;0.20;;
72113;SDS011;59989;46.220;19.888;2023-03-14T01:58:48;0.50;;;0.20;;
72113;SDS011;59989;46.220;19.888;2023-03-14T02:01:54;0.80;;;0.25;;
72113;SDS011;59989;46.220;19.888;2023-03-14T02:04:58;0.65;;;0.20;;
72113;SDS011;59989;46.220;19.888;2023-03-14T02:08:08;0.50;;;0.20;;
72113;SDS011;59989;46.220;19.888;2023-03-14T02:11:21;2.15;;;0.50;;
72113;SDS011;59989;46.220;19.888;2023-03-14T02:14:37;0.40;;;0.20;;
72113;SDS011;59989;46.220;19.888;2023-03-14T02:17:58;0.50;;;0.20;;
72113;SDS011;59989;46.220;19.888;2023-03-14T02:21:49;1.17;;;0.75;;
72113;SDS011;59989;46.220;19.888;2023-03-14T02:28:32;0.73;;;0.38;;
72113;SDS011;59989;46.220;19.888;2023-03-14T02:31:36;0.77;;;0.40;;
72113;SDS011;59989;46.220;19.888;2023-03-14T02:34:39;0.40;;;0.17;;
72113;SDS011;59989;46.220;19.888;2023-03-14T02:41:01;0.93;;;0.38;;
72113;SDS011;59989;46.220;19.888;2023-03-14T02:44:09;0.75;;;0.30;;
72113;SDS011;59989;46.220;19.888;2023-03-14T02:47:12;0.97;;;0.40;;
72113;SDS011;59989;46.220;19.888;2023-03-14T02:50:19;0.68;;;0.25;;
72113;SDS011;59989;46.220;19.888;2023-03-14T02:53:25;0.73;;;0.40;;
72113;SDS011;59989;46.220;19.888;2023-03-14T02:56:32;0.75;;;0.43;;
72113;SDS011;59989;46.220;19.888;2023-03-14T02:59:37;0.45;;;0.13;;
72113;SDS011;59989;46.220;19.888;2023-03-14T03:02:47;0.40;;;0.20;;
72113;SDS011;59989;46.220;19.888;2023-03-14T03:05:50;0.40;;;0.10;;
72113;SDS011;59989;46.220;19.888;2023-03-14T03:08:54;0.80;;;0.30;;
72113;SDS011;59989;46.220;19.888;2023-03-14T03:11:57;0.70;;;0.22;;
72113;SDS011;59989;46.220;19.888;2023-03-14T03:15:01;0.60;;;0.28;;
72113;SDS011;59989;46.220;19.888;2023-03-14T03:18:05;0.40;;;0.20;;
72113;SDS011;59989;46.220;19.888;2023-03-14T03:21:07;0.47;;;0.20;;
72113;SDS011;59989;46.220;19.888;2023-03-14T03:24:11;0.43;;;0.20;;
72113;SDS011;59989;46.220;19.888;2023-03-14T03:27:14;0.70;;;0.40;;
72113;SDS011;59989;46.220;19.888;2023-03-14T03:30:16;0.73;;;0.28;;
72113;SDS011;59989;46.220;19.888;2023-03-14T03:33:20;0.40;;;0.17;;
72113;SDS011;59989;46.220;19.888;2023-03-14T03:36:25;0.40;;;0.20;;
72113;SDS011;59989;46.220;19.888;2023-03-14T03:39:28;0.70;;;0.20;;
72113;SDS011;59989;46.220;19.888;2023-03-14T03:42:31;1.25;;;0.50;;
72113;SDS011;59989;46.220;19.888;2023-03-14T03:45:35;0.80;;;0.30;;
72113;SDS011;59989;46.220;19.888;2023-03-14T03:48:40;0.40;;;0.20;;
72113;SDS011;59989;46.220;19.888;2023-03-14T03:51:43;0.30;;;0.15;;
72113;SDS011;59989;46.220;19.888;2023-03-14T03:54:46;0.70;;;0.30;;
72113;SDS011;59989;46.220;19.888;2023-03-14T03:57:48;0.30;;;0.10;;
72113;SDS011;59989;46.220;19.888;2023-03-14T04:00:52;0.70;;;0.30;;
72113;SDS011;59989;46.220;19.888;2023-03-14T04:03:55;0.40;;;0.20;;
72113;SDS011;59989;46.220;19.888;2023-03-14T04:06:58;0.38;;;0.20;;
72113;SDS011;59989;46.220;19.888;2023-03-14T04:10:00;0.88;;;0.43;;
72113;SDS011;59989;46.220;19.888;2023-03-14T04:13:14;0.85;;;0.30;;
72113;SDS011;59989;46.220;19.888;2023-03-14T04:16:23;0.47;;;0.20;;
72113;SDS011;59989;46.220;19.888;2023-03-14T04:19:33;0.40;;;0.10;;
72113;SDS011;59989;46.220;19.888;2023-03-14T04:22:35;0.40;;;0.20;;
72113;SDS011;59989;46.220;19.888;2023-03-14T04:25:39;0.73;;;0.30;;
72113;SDS011;59989;46.220;19.888;2023-03-14T04:28:43;0.45;;;0.20;;
72113;SDS011;59989;46.220;19.888;2023-03-14T04:31:45;0.95;;;0.77;;
72113;SDS011;59989;46.220;19.888;2023-03-14T04:34:48;0.93;;;0.40;;
72113;SDS011;59989;46.220;19.888;2023-03-14T04:37:51;0.50;;;0.20;;
72113;SDS011;59989;46.220;19.888;2023-03-14T04:40:55;0.85;;;0.30;;
72113;SDS011;59989;46.220;19.888;2023-03-14T04:44:03;0.60;;;0.20;;
72113;SDS011;59989;46.220;19.888;2023-03-14T04:47:06;0.43;;;0.20;;
72113;SDS011;59989;46.220;19.888;2023-03-14T04:50:09;0.30;;;0.10;;
72113;SDS011;59989;46.220;19.888;2023-03-14T04:53:15;0.40;;;0.20;;
72113;SDS011;59989;46.220;19.888;2023-03-14T04:56:20;0.45;;;0.20;;
72113;SDS011;59989;46.220;19.888;2023-03-14T04:59:23;0.40;;;0.20;;
72113;SDS011;59989;46.220;19.888;2023-03-14T05:02:29;0.50;;;0.20;;
72113;SDS011;59989;46.220;19.888;2023-03-14T05:05:46;0.80;;;0.40;;
72113;SDS011;59989;46.220;19.888;2023-03-14T05:09:11;0.50;;;0.20;;
72113;SDS011;59989;46.220;19.888;2023-03-14T05:12:19;0.50;;;0.20;;
72113;SDS011;59989;46.220;19.888;2023-03-14T05:15:31;0.60;;;0.20;;
72113;SDS011;59989;46.220;19.888;2023-03-14T05:19:12;0.70;;;0.22;;
72113;SDS011;59989;46.220;19.888;2023-03-14T05:22:47;0.40;;;0.20;;
72113;SDS011;59989;46.220;19.888;2023-03-14T05:26:14;0.40;;;0.20;;
72113;SDS011;59989;46.220;19.888;2023-03-14T05:29:32;0.55;;;0.20;;
72113;SDS011;59989;46.220;19.888;2023-03-14T05:32:54;0.40;;;0.20;;
72113;SDS011;59989;46.220;19.888;2023-03-14T05:36:15;0.40;;;0.20;;
72113;SDS011;59989;46.220;19.888;2023-03-14T05:39:43;0.40;;;0.20;;
72113;SDS011;59989;46.220;19.888;2023-03-14T05:43:06;0.50;;;0.20;;
72113;SDS011;59989;46.220;19.888;2023-03-14T05:46:16;0.50;;;0.20;;
72113;SDS011;59989;46.220;19.888;2023-03-14T05:49:45;0.47;;;0.25;;
72113;SDS011;59989;46.220;19.888;2023-03-14T05:53:05;0.90;;;0.40;;
72113;SDS011;59989;46.220;19.888;2023-03-14T05:56:24;0.50;;;0.20;;
72113;SDS011;59989;46.220;19.888;2023-03-14T05:59:47;0.90;;;0.40;;
72113;SDS011;59989;46.220;19.888;2023-03-14T06:03:10;0.50;;;0.20;;
72113;SDS011;59989;46.220;19.888;2023-03-14T06:06:17;1.00;;;0.63;;
72113;SDS011;59989;46.220;19.888;2023-03-14T06:09:20;0.40;;;0.20;;
72113;SDS011;59989;46.220;19.888;2023-03-14T06:12:26;1.23;;;0.40;;
72113;SDS011;59989;46.220;19.888;2023-03-14T06:15:31;1.55;;;1.10;;
72113;SDS011;59989;46.220;19.888;2023-03-14T06:18:35;0.47;;;0.20;;
72113;SDS011;59989;46.220;19.888;2023-03-14T06:21:41;2.88;;;0.55;;
72113;SDS011;59989;46.220;19.888;2023-03-14T06:24:44;0.75;;;0.30;;
72113;SDS011;59989;46.220;19.888;2023-03-14T06:27:47;0.80;;;0.30;;
72113;SDS011;59989;46.220;19.888;2023-03-14T06:30:51;0.50;;;0.20;;
72113;SDS011;59989;46.220;19.888;2023-03-14T06:33:53;0.70;;;0.30;;
72113;SDS011;59989;46.220;19.888;2023-03-14T06:36:58;9.63;;;0.60;;
72113;SDS011;59989;46.220;19.888;2023-03-14T06:40:01;0.50;;;0.20;;
72113;SDS011;59989;46.220;19.888;2023-03-14T06:43:22;0.50;;;0.20;;
72113;SDS011;59989;46.220;19.888;2023-03-14T06:46:26;0.70;;;0.20;;
72113;SDS011;59989;46.220;19.888;2023-03-14T06:49:29;0.73;;;0.28;;
72113;SDS011;59989;46.220;19.888;2023-03-14T06:52:34;0.52;;;0.20;;
72113;SDS011;59989;46.220;19.888;2023-03-14T06:55:37;0.70;;;0.30;;
72113;SDS011;59989;46.220;19.888;2023-03-14T06:58:40;0.50;;;0.20;;
72113;SDS011;59989;46.220;19.888;2023-03-14T07:01:44;0.73;;;0.25;;
72113;SDS011;59989;46.220;19.888;2023-03-14T07:04:47;1.10;;;0.30;;
72113;SDS011;59989;46.220;19.888;2023-03-14T07:07:50;0.60;;;0.20;;
72113;SDS011;59989;46.220;19.888;2023-03-14T07:10:55;0.90;;;0.35;;
72113;SDS011;59989;46.220;19.888;2023-03-14T07:13:59;0.93;;;0.57;;
72113;SDS011;59989;46.220;19.888;2023-03-14T07:17:02;1.20;;;0.68;;
72113;SDS011;59989;46.220;19.888;2023-03-14T07:20:05;0.95;;;0.40;;
72113;SDS011;59989;46.220;19.888;2023-03-14T07:23:10;0.57;;;0.20;;
72113;SDS011;59989;46.220;19.888;2023-03-14T07:26:21;0.60;;;0.20;;
72113;SDS011;59989;46.220;19.888;2023-03-14T07:29:28;2.83;;;0.57;;
72113;SDS011;59989;46.220;19.888;2023-03-14T07:32:31;1.75;;;0.60;;
72113;SDS011;59989;46.220;19.888;2023-03-14T07:35:33;0.88;;;0.30;;
72113;SDS011;59989;46.220;19.888;2023-03-14T07:38:36;0.70;;;0.30;;
72113;SDS011;59989;46.220;19.888;2023-03-14T07:41:56;0.70;;;0.30;;
72113;SDS011;59989;46.220;19.888;2023-03-14T07:45:27;1.53;;;1.03;;
72113;SDS011;59989;46.220;19.888;2023-03-14T07:48:30;1.85;;;1.15;;
72113;SDS011;59989;46.220;19.888;2023-03-14T07:51:32;0.60;;;0.20;;
72113;SDS011;59989;46.220;19.888;2023-03-14T07:54:35;0.60;;;0.20;;
72113;SDS011;59989;46.220;19.888;2023-03-14T07:57:37;1.20;;;0.30;;
72113;SDS011;59989;46.220;19.888;2023-03-14T08:00:41;1.10;;;0.60;;
72113;SDS011;59989;46.220;19.888;2023-03-14T08:03:43;1.05;;;0.47;;
72113;SDS011;59989;46.220;19.888;2023-03-14T08:06:46;1.45;;;0.55;;
72113;SDS011;59989;46.220;19.888;2023-03-14T08:09:48;1.20;;;0.28;;
72113;SDS011;59989;46.220;19.888;2023-03-14T08:12:53;1.20;;;0.40;;
72113;SDS011;59989;46.220;19.888;2023-03-14T08:15:58;1.10;;;0.50;;
72113;SDS011;59989;46.220;19.888;2023-03-14T08:19:01;0.70;;;0.30;;
72113;SDS011;59989;46.220;19.888;2023-03-14T08:22:04;1.30;;;0.50;;
72113;SDS011;59989;46.220;19.888;2023-03-14T08:25:07;1.08;;;0.30;;
72113;SDS011;59989;46.220;19.888;2023-03-14T08:28:09;2.33;;;0.60;;
72113;SDS011;59989;46.220;19.888;2023-03-14T08:31:12;1.20;;;0.40;;
72113;SDS011;59989;46.220;19.888;2023-03-14T08:34:15;1.10;;;0.40;;
72113;SDS011;59989;46.220;19.888;2023-03-14T08:37:17;0.70;;;0.30;;
72113;SDS011;59989;46.220;19.888;2023-03-14T08:40:28;1.40;;;0.45;;
72113;SDS011;59989;46.220;19.888;2023-03-14T08:43:30;1.25;;;0.57;;
72113;SDS011;59989;46.220;19.888;2023-03-14T08:46:33;0.97;;;0.40;;
72113;SDS011;59989;46.220;19.888;2023-03-14T08:49:35;0.85;;;0.30;;
72113;SDS011;59989;46.220;19.888;2023-03-14T08:52:38;1.10;;;0.40;;
72113;SDS011;59989;46.220;19.888;2023-03-14T08:55:42;0.70;;;0.28;;
72113;SDS011;59989;46.220;19.888;2023-03-14T08:58:45;1.13;;;0.45;;
72113;SDS011;59989;46.220;19.888;2023-03-14T09:01:47;2.47;;;1.23;;
72113;SDS011;59989;46.220;19.888;2023-03-14T09:04:50;0.80;;;0.30;;
72113;SDS011;59989;46.220;19.888;2023-03-14T09:07:53;0.98;;;0.30;;
72113;SDS011;59989;46.220;19.888;2023-03-14T09:10:56;1.35;;;0.50;;
72113;SDS011;59989;46.220;19.888;2023-03-14T09:13:59;0.90;;;0.30;;
72113;SDS011;59989;46.220;19.888;2023-03-14T09:17:02;0.70;;;0.30;;
72113;SDS011;59989;46.220;19.888;2023-03-14T09:20:05;1.45;;;0.60;;
72113;SDS011;59989;46.220;19.888;2023-03-14T09:23:09;0.98;;;0.50;;
72113;SDS011;59989;46.220;19.888;2023-03-14T09:26:12;0.82;;;0.30;;
72113;SDS011;59989;46.220;19.888;2023-03-14T09:29:15;0.75;;;0.30;;
72113;SDS011;59989;46.220;19.888;2023-03-14T09:32:17;0.97;;;0.33;;
72113;SDS011;59989;46.220;19.888;2023-03-14T09:35:20;1.25;;;0.50;;
72113;SDS011;59989;46.220;19.888;2023-03-14T09:38:22;1.02;;;0.35;;
72113;SDS011;59989;46.220;19.888;2023-03-14T09:41:27;1.92;;;0.82;;
72113;SDS011;59989;46.220;19.888;2023-03-14T09:44:37;1.02;;;0.40;;
72113;SDS011;59989;46.220;19.888;2023-03-14T09:47:44;1.10;;;0.40;;
72113;SDS011;59989;46.220;19.888;2023-03-14T09:51:02;1.65;;;0.80;;
72113;SDS011;59989;46.220;19.888;2023-03-14T09:54:15;2.15;;;0.70;;
72113;SDS011;59989;46.220;19.888;2023-03-14T09:57:32;1.00;;;0.40;;
72113;SDS011;59989;46.220;19.888;2023-03-14T10:00:37;1.42;;;0.50;;
72113;SDS011;59989;46.220;19.888;2023-03-14T10:03:40;1.33;;;0.50;;
72113;SDS011;59989;46.220;19.888;2023-03-14T10:06:47;2.38;;;1.20;;
72113;SDS011;59989;46.220;19.888;2023-03-14T10:09:50;1.23;;;0.40;;
72113;SDS011;59989;46.220;19.888;2023-03-14T10:16:13;1.63;;;0.50;;
72113;SDS011;59989;46.220;19.888;2023-03-14T10:19:17;1.47;;;0.60;;
72113;SDS011;59989;46.220;19.888;2023-03-14T10:22:19;1.95;;;0.73;;
72113;SDS011;59989;46.220;19.888;2023-03-14T10:25:26;1.40;;;0.50;;
72113;SDS011;59989;46.220;19.888;2023-03-14T10:28:33;1.67;;;0.50;;
72113;SDS011;59989;46.220;19.888;2023-03-14T10:31:51;1.55;;;0.52;;
72113;SDS011;59989;46.220;19.888;2023-03-14T10:35:30;1.63;;;0.53;;
72113;SDS011;59989;46.220;19.888;2023-03-14T10:38:26;1.40;;;0.40;;
72113;SDS011;59989;46.220;19.888;2023-03-14T10:41:34;5.55;;;0.75;;
72113;SDS011;59989;46.220;19.888;2023-03-14T10:44:36;2.58;;;1.15;;
72113;SDS011;59989;46.220;19.888;2023-03-14T10:47:47;3.50;;;1.08;;
72113;SDS011;59989;46.220;19.888;2023-03-14T10:50:56;1.13;;;0.40;;
72113;SDS011;59989;46.220;19.888;2023-03-14T10:54:14;1.65;;;0.55;;
72113;SDS011;59989;46.220;19.888;2023-03-14T10:57:22;1.55;;;0.57;;
72113;SDS011;59989;46.220;19.888;2023-03-14T11:00:24;3.53;;;1.15;;
72113;SDS011;59989;46.220;19.888;2023-03-14T11:03:28;1.42;;;0.47;;
72113;SDS011;59989;46.220;19.888;2023-03-14T11:19:56;4.43;;;1.38;;
72113;SDS011;59989;46.220;19.888;2023-03-14T11:30:22;1.90;;;0.70;;
72113;SDS011;59989;46.220;19.888;2023-03-14T11:37:00;1.67;;;0.60;;
72113;SDS011;59989;46.220;19.888;2023-03-14T11:46:34;1.58;;;0.50;;
72113;SDS011;59989;46.220;19.888;2023-03-14T11:49:43;2.15;;;0.75;;
72113;SDS011;59989;46.220;19.888;2023-03-14T11:53:01;1.88;;;0.77;;
72113;SDS011;59989;46.220;19.888;2023-03-14T11:56:12;1.53;;;0.60;;
72113;SDS011;59989;46.220;19.888;2023-03-14T11:59:24;2.75;;;1.17;;
72113;SDS011;59989;46.220;19.888;2023-03-14T12:02:40;2.13;;;0.80;;
72113;SDS011;59989;46.220;19.888;2023-03-14T12:09:19;2.22;;;0.93;;
72113;SDS011;59989;46.220;19.888;2023-03-14T12:12:25;2.70;;;1.13;;
72113;SDS011;59989;46.220;19.888;2023-03-14T12:15:29;3.45;;;1.20;;
72113;SDS011;59989;46.220;19.888;2023-03-14T12:18:36;2.88;;;1.20;;
72113;SDS011;59989;46.220;19.888;2023-03-14T12:21:46;4.28;;;1.23;;
72113;SDS011;59989;46.220;19.888;2023-03-14T12:25:00;4.40;;;1.08;;
72113;SDS011;59989;46.220;19.888;2023-03-14T12:28:30;2.43;;;0.93;;
72113;SDS011;59989;46.220;19.888;2023-03-14T12:31:37;2.90;;;1.00;;
72113;SDS011;59989;46.220;19.888;2023-03-14T12:34:50;3.03;;;1.20;;
72113;SDS011;59989;46.220;19.888;2023-03-14T12:37:52;4.25;;;1.40;;
72113;SDS011;59989;46.220;19.888;2023-03-14T12:41:17;3.55;;;1.50;;
72113;SDS011;59989;46.220;19.888;2023-03-14T12:50:39;3.47;;;1.50;;
72113;SDS011;59989;46.220;19.888;2023-03-14T12:54:11;3.00;;;1.30;;
72113;SDS011;59989;46.220;19.888;2023-03-14T12:57:45;4.22;;;1.80;;
72113;SDS011;59989;46.220;19.888;2023-03-14T13:01:15;3.67;;;1.50;;
72113;SDS011;59989;46.220;19.888;2023-03-14T13:04:25;3.33;;;1.27;;
72113;SDS011;59989;46.220;19.888;2023-03-14T13:10:49;4.35;;;1.70;;
72113;SDS011;59989;46.220;19.888;2023-03-14T13:13:56;4.40;;;1.73;;
72113;SDS011;59989;46.220;19.888;2023-03-14T13:17:00;3.53;;;1.40;;
72113;SDS011;59989;46.220;19.888;2023-03-14T13:20:29;3.40;;;1.40;;
72113;SDS011;59989;46.220;19.888;2023-03-14T13:23:35;4.00;;;1.63;;
72113;SDS011;59989;46.220;19.888;2023-03-14T13:26:40;3.78;;;1.50;;
72113;SDS011;59989;46.220;19.888;2023-03-14T13:29:48;4.75;;;1.80;;
72113;SDS011;59989;46.220;19.888;2023-03-14T13:32:52;3.77;;;1.50;;
72113;SDS011;59989;46.220;19.888;2023-03-14T13:36:00;3.72;;;1.40;;
72113;SDS011;59989;46.220;19.888;2023-03-14T13:39:10;4.13;;;1.70;;
72113;SDS011;59989;46.220;19.888;2023-03-14T13:42:16;3.65;;;1.60;;
72113;SDS011;59989;46.220;19.888;2023-03-14T13:45:19;3.42;;;1.38;;
72113;SDS011;59989;46.220;19.888;2023-03-14T13:48:22;4.17;;;1.30;;
72113;SDS011;59989;46.220;19.888;2023-03-14T13:51:29;2.72;;;1.08;;
72113;SDS011;59989;46.220;19.888;2023-03-14T13:54:34;2.10;;;0.88;;
72113;SDS011;59989;46.220;19.888;2023-03-14T13:57:44;2.35;;;0.80;;
72113;SDS011;59989;46.220;19.888;2023-03-14T14:00:59;3.40;;;1.02;;
72113;SDS011;59989;46.220;19.888;2023-03-14T14:04:21;1.40;;;0.50;;
72113;SDS011;59989;46.220;19.888;2023-03-14T14:07:26;2.33;;;0.80;;
72113;SDS011;59989;46.220;19.888;2023-03-14T14:10:30;2.08;;;0.90;;
72113;SDS011;59989;46.220;19.888;2023-03-14T14:13:34;1.88;;;0.80;;
72113;SDS011;59989;46.220;19.888;2023-03-14T14:16:37;1.67;;;0.60;;
72113;SDS011;59989;46.220;19.888;2023-03-14T14:19:39;1.53;;;0.53;;
72113;SDS011;59989;46.220;19.888;2023-03-14T14:22:44;1.73;;;0.65;;
72113;SDS011;59989;46.220;19.888;2023-03-14T14:25:48;2.08;;;0.70;;
72113;SDS011;59989;46.220;19.888;2023-03-14T14:28:58;1.20;;;0.40;;
72113;SDS011;59989;46.220;19.888;2023-03-14T14:32:13;1.92;;;0.73;;
72113;SDS011;59989;46.220;19.888;2023-03-14T14:35:33;2.90;;;1.10;;
72113;SDS011;59989;46.220;19.888;2023-03-14T14:38:37;1.73;;;0.68;;
72113;SDS011;59989;46.220;19.888;2023-03-14T14:41:40;2.05;;;0.80;;
72113;SDS011;59989;46.220;19.888;2023-03-14T14:44:44;1.77;;;0.60;;
72113;SDS011;59989;46.220;19.888;2023-03-14T14:47:51;1.83;;;0.70;;
72113;SDS011;59989;46.220;19.888;2023-03-14T14:51:00;2.33;;;0.90;;
72113;SDS011;59989;46.220;19.888;2023-03-14T14:54:10;1.20;;;0.40;;
72113;SDS011;59989;46.220;19.888;2023-03-14T14:57:25;2.05;;;0.90;;
72113;SDS011;59989;46.220;19.888;2023-03-14T15:00:29;1.73;;;0.60;;
72113;SDS011;59989;46.220;19.888;2023-03-14T15:03:32;1.45;;;0.40;;
72113;SDS011;59989;46.220;19.888;2023-03-14T15:06:36;2.40;;;0.60;;
72113;SDS011;59989;46.220;19.888;2023-03-14T15:09:41;1.65;;;0.57;;
72113;SDS011;59989;46.220;19.888;2023-03-14T15:12:44;1.52;;;0.75;;
72113;SDS011;59989;46.220;19.888;2023-03-14T15:15:47;2.05;;;0.80;;
72113;SDS011;59989;46.220;19.888;2023-03-14T15:18:54;1.25;;;0.40;;
72113;SDS011;59989;46.220;19.888;2023-03-14T15:21:59;1.10;;;0.40;;
72113;SDS011;59989;46.220;19.888;2023-03-14T15:25:01;1.33;;;0.40;;
72113;SDS011;59989;46.220;19.888;2023-03-14T15:28:20;1.70;;;0.60;;
72113;SDS011;59989;46.220;19.888;2023-03-14T15:31:24;0.93;;;0.30;;
72113;SDS011;59989;46.220;19.888;2023-03-14T15:34:27;2.40;;;0.82;;
72113;SDS011;59989;46.220;19.888;2023-03-14T15:37:30;1.23;;;0.40;;
72113;SDS011;59989;46.220;19.888;2023-03-14T15:40:34;1.27;;;0.50;;
72113;SDS011;59989;46.220;19.888;2023-03-14T15:43:37;1.65;;;0.55;;
72113;SDS011;59989;46.220;19.888;2023-03-14T15:46:40;1.23;;;0.52;;
72113;SDS011;59989;46.220;19.888;2023-03-14T15:49:42;1.45;;;0.47;;
72113;SDS011;59989;46.220;19.888;2023-03-14T15:52:45;5.17;;;0.70;;
72113;SDS011;59989;46.220;19.888;2023-03-14T15:55:48;1.30;;;0.57;;
72113;SDS011;59989;46.220;19.888;2023-03-14T15:58:50;1.35;;;0.45;;
72113;SDS011;59989;46.220;19.888;2023-03-14T16:01:53;1.30;;;0.43;;
72113;SDS011;59989;46.220;19.888;2023-03-14T16:04:55;1.38;;;0.40;;
72113;SDS011;59989;46.220;19.888;2023-03-14T16:07:58;2.27;;;0.50;;
72113;SDS011;59989;46.220;19.888;2023-03-14T16:11:02;1.05;;;0.40;;
72113;SDS011;59989;46.220;19.888;2023-03-14T16:14:06;2.35;;;0.70;;
72113;SDS011;59989;46.220;19.888;2023-03-14T16:17:08;1.00;;;0.40;;
72113;SDS011;59989;46.220;19.888;2023-03-14T16:20:13;2.17;;;1.08;;
72113;SDS011;59989;46.220;19.888;2023-03-14T16:23:15;1.00;;;0.33;;
72113;SDS011;59989;46.220;19.888;2023-03-14T16:26:19;1.33;;;0.50;;
72113;SDS011;59989;46.220;19.888;2023-03-14T16:29:22;1.58;;;0.65;;
72113;SDS011;59989;46.220;19.888;2023-03-14T16:32:25;1.50;;;0.55;;
72113;SDS011;59989;46.220;19.888;2023-03-14T16:35:28;1.60;;;0.52;;
72113;SDS011;59989;46.220;19.888;2023-03-14T16:38:31;1.23;;;0.50;;
72113;SDS011;59989;46.220;19.888;2023-03-14T16:41:54;2.13;;;0.80;;
72113;SDS011;59989;46.220;19.888;2023-03-14T16:45:00;1.20;;;0.40;;
72113;SDS011;59989;46.220;19.888;2023-03-14T16:48:02;1.25;;;0.50;;
72113;SDS011;59989;46.220;19.888;2023-03-14T16:51:05;1.52;;;0.47;;
72113;SDS011;59989;46.220;19.888;2023-03-14T16:54:08;1.57;;;0.60;;
72113;SDS011;59989;46.220;19.888;2023-03-14T16:57:10;1.10;;;0.38;;
72113;SDS011;59989;46.220;19.888;2023-03-14T17:00:13;1.73;;;0.60;;
72113;SDS011;59989;46.220;19.888;2023-03-14T17:03:16;0.77;;;0.30;;
72113;SDS011;59989;46.220;19.888;2023-03-14T17:06:23;2.78;;;0.60;;
72113;SDS011;59989;46.220;19.888;2023-03-14T17:09:28;3.60;;;0.63;;
72113;SDS011;59989;46.220;19.888;2023-03-14T17:12:33;1.23;;;0.65;;
72113;SDS011;59989;46.220;19.888;2023-03-14T17:15:35;1.80;;;0.70;;
72113;SDS011;59989;46.220;19.888;2023-03-14T17:18:38;1.08;;;0.57;;
72113;SDS011;59989;46.220;19.888;2023-03-14T17:21:41;2.05;;;0.80;;
72113;SDS011;59989;46.220;19.888;2023-03-14T17:24:43;2.83;;;1.60;;
72113;SDS011;59989;46.220;19.888;2023-03-14T17:27:46;0.60;;;0.20;;
72113;SDS011;59989;46.220;19.888;2023-03-14T17:30:49;0.88;;;0.30;;
72113;SDS011;59989;46.220;19.888;2023-03-14T17:33:52;1.33;;;0.50;;
72113;SDS011;59989;46.220;19.888;2023-03-14T17:36:56;0.85;;;0.40;;
72113;SDS011;59989;46.220;19.888;2023-03-14T17:39:59;0.97;;;0.30;;
72113;SDS011;59989;46.220;19.888;2023-03-14T17:43:03;2.45;;;0.50;;
72113;SDS011;59989;46.220;19.888;2023-03-14T17:46:06;1.98;;;0.70;;
72113;SDS011;59989;46.220;19.888;2023-03-14T17:49:13;0.90;;;0.30;;
72113;SDS011;59989;46.220;19.888;2023-03-14T17:52:16;1.08;;;0.47;;
72113;SDS011;59989;46.220;19.888;2023-03-14T17:55:19;0.93;;;0.33;;
72113;SDS011;59989;46.220;19.888;2023-03-14T17:58:21;1.27;;;0.52;;
72113;SDS011;59989;46.220;19.888;2023-03-14T18:01:25;1.20;;;0.40;;
72113;SDS011;59989;46.220;19.888;2023-03-14T18:04:29;1.58;;;0.57;;
72113;SDS011;59989;46.220;19.888;2023-03-14T18:07:34;1.38;;;0.57;;
72113;SDS011;59989;46.220;19.888;2023-03-14T18:10:41;1.80;;;0.97;;
72113;SDS011;59989;46.220;19.888;2023-03-14T18:13:45;0.80;;;0.30;;
72113;SDS011;59989;46.220;19.888;2023-03-14T18:16:48;1.90;;;1.05;;
72113;SDS011;59989;46.220;19.888;2023-03-14T18:19:53;1.27;;;0.47;;
72113;SDS011;59989;46.220;19.888;2023-03-14T18:22:57;1.00;;;0.30;;
72113;SDS011;59989;46.220;19.888;2023-03-14T18:26:03;1.13;;;0.50;;
72113;SDS011;59989;46.220;19.888;2023-03-14T18:29:06;1.23;;;0.40;;
72113;SDS011;59989;46.220;19.888;2023-03-14T18:32:09;1.02;;;0.38;;
72113;SDS011;59989;46.220;19.888;2023-03-14T18:35:12;0.80;;;0.30;;
72113;SDS011;59989;46.220;19.888;2023-03-14T18:38:15;1.35;;;0.43;;
72113;SDS011;59989;46.220;19.888;2023-03-14T18:41:18;1.83;;;0.50;;
72113;SDS011;59989;46.220;19.888;2023-03-14T18:44:24;1.85;;;0.77;;
72113;SDS011;59989;46.220;19.888;2023-03-14T18:47:27;1.88;;;1.15;;
72113;SDS011;59989;46.220;19.888;2023-03-14T18:50:31;1.95;;;0.65;;
72113;SDS011;59989;46.220;19.888;2023-03-14T18:53:34;2.97;;;1.48;;
72113;SDS011;59989;46.220;19.888;2023-03-14T18:56:38;4.37;;;0.70;;
72113;SDS011;59989;46.220;19.888;2023-03-14T18:59:42;0.77;;;0.35;;
72113;SDS011;59989;46.220;19.888;2023-03-14T19:02:45;0.60;;;0.20;;
72113;SDS011;59989;46.220;19.888;2023-03-14T19:05:48;0.60;;;0.20;;
72113;SDS011;59989;46.220;19.888;2023-03-14T19:08:51;1.02;;;0.40;;
72113;SDS011;59989;46.220;19.888;2023-03-14T19:11:54;0.90;;;0.37;;
72113;SDS011;59989;46.220;19.888;2023-03-14T19:14:57;1.20;;;0.50;;
72113;SDS011;59989;46.220;19.888;2023-03-14T19:18:00;0.90;;;0.40;;
72113;SDS011;59989;46.220;19.888;2023-03-14T19:21:04;1.23;;;0.50;;
72113;SDS011;59989;46.220;19.888;2023-03-14T19:24:08;1.25;;;0.40;;
72113;SDS011;59989;46.220;19.888;2023-03-14T19:27:18;0.50;;;0.20;;